普天間飛行場の過去48時間の天気

普天間飛行場 (Futema)

現在時刻: 5/27 10:02 JST (5/27 01:02 UTC) 以下の時間は現地時間です。

過去48時間のMETAR気象情報
時間 風向 風速(m/s) 視程 気温(℃) 湿度(%) 気圧(hPa) 天気現象
27 09:30 北東 3 9000m 22 100 1005.7 弱いしゅう雨 もや
27 09:15 北東 3 9000m 22 100 1005.8 弱いしゅう雨 もや
27 08:56 東北東 3 6000m 21.1 100 1005.7 弱いしゅう雨 もや
27 08:17 東北東 3 1200m 21 100 1005.2 弱いしゅう雨 もや
27 07:56 静穏 0 3200m 21.1 100 1005 強いしゅう雨 もや
27 07:34 静穏 0 1600m 21 100 1004.9 強いしゅう雨 もや
27 06:56 静穏 0 1200m 21.1 100 1004.2 強いしゅう雨 もや
27 06:03 北西 2 4000m 21.1 - 1005 弱い雨 霧
27 05:00 3 8000m 21 100 1003.3 弱いしゅう雨 もや
27 04:56 北北東 2 8000m 21.1 100 1003.2 弱いしゅう雨 もや
27 04:07 3 9000m 21 100 1003.3 弱い霧雨 もや
27 03:56 2 8000m 21.1 100 1003.3 もや
27 03:08 3 8000m 22 100 1003.5 弱いしゅう雨 もや
27 02:56 4 8000m 21.7 100 1003.5 弱いしゅう雨 もや
27 02:26 北西 4 8000m 22 100 1003.5 弱いしゅう雨 もや
27 01:56 南南東 3 8000m 21.7 100 1003.3 弱いしゅう雨 もや
27 00:56 東南東 5 9000m - - 1003.4 霧雨 もや
26 23:56 東南東 3 10km以上 21.7 100 1004.5 弱い霧雨
26 22:56 4 10km以上 21.1 100 1004.6 弱い霧雨
26 22:03 5 10km以上 21.1 100 1006 雨 もや
26 20:56 北北東 2 8000m 20.6 100 1004.8 しゅう雨 もや
26 19:56 5 6000m 20.6 100 1004.3 しゅう雨 もや
26 18:56 4 6000m 21.1 100 1004.2 しゅう雨 もや
26 18:44 4 6000m 21 100 1003.8 しゅう雨 もや
26 17:56 6 800m 22.8 100 1003.8 強いしゅう雨 霧
26 17:35 北北西 3 1200m 23 100 1003.5 強いしゅう雨 もや
26 17:12 北北西 2 3200m 24 100 1003.6 しゅう雨 もや
26 17:00 西 2 6000m 24 100 1003.7 弱いしゅう雨 もや
26 16:25 南西 5 6000m 24 100 1003.8 弱いしゅう雨 もや
26 16:13 南南西 2 8000m 24 100 1003.8 弱い霧雨 もや
26 16:02 3 8000m 24 100 1004 弱いしゅう雨 もや
26 15:56 不定 2 4800m 23.9 100 1004 弱いしゅう雨 もや
26 15:22 北北西 2 6000m 24 100 1004.2 弱いしゅう雨 もや
26 15:03 西北西 2 10km以上 23.9 100 1006 弱い霧雨
26 11:56 不定 2 10km以上 25 96 1005.8 周辺でしゅう雨
26 11:03 西北西 3 10km以上 24.4 97 1008
26 10:52 西北西 3 10km以上 24 100 1008
26 08:56 西 3 10km以上 23.9 100 1006.5 周辺でしゅう雨
26 08:35 西 3 10km以上 24 100 1006.3 周辺でしゅう雨
26 08:10 西 3 10km以上 24 100 1006.4 周辺でしゅう雨
26 07:56 西 3 3200m 22.8 100 1006.5 しゅう雨 もや
26 06:03 西南西 3 4000m 23.3 100 1007 弱い雨 もや
26 04:56 西南西 3 10km以上 23.3 100 1005.7
26 03:56 南西 3 10km以上 23.3 100 1005.7
25 22:56 西南西 3 10km以上 23.9 100 1008
25 21:56 西 3 10km以上 23.9 96 1008.1
25 20:56 西 4 10km以上 23.9 96 1007.8
25 19:56 西 3 10km以上 24.4 94 1007.6
25 18:56 西南西 4 10km以上 24.4 97 1007.1
25 16:56 西北西 4 10km以上 26.1 90 1006
25 15:56 西 5 10km以上 25.6 90 1006.3
25 13:56 西 5 10km以上 25.6 93 1007.3
25 13:03 西南西 5 10km以上 25 96 1010
25 12:11 西南西 5 10km以上 24.4 100 1010
25 11:56 西南西 6 9000m 24.4 100 1008.5 霧雨 もや
25 10:56 西南西 6 10km以上 24.4 100 1008.9
ROTM 270030Z 04006KT 9000 -SHRA BR BKN005 OVC020 22/22 A2974 RMK SLP057
ROTM 270015Z 05005KT 9000 -SHRA BR BKN007 OVC027 22/22 A2974 RMK SLP058
ROTM 262356Z 07006KT 6000 -SHRA BR BKN005 OVC030 21/21 A2974 RMK SLP057 P0009 60097 T02110211 10211 20211 53017
ROTM 262317Z 07006KT 1200 -SHRA BR BKN005 OVC011 21/21 A2972 RMK SFC VIS 1 1/2 SLP052
ROTM 262256Z 00000KT 3200 +SHRA BR BKN007 OVC015 21/21 A2972 RMK SFC VIS 4 SLP050 P0055 T02110211
ROTM 262234Z COR 00000KT 1600 +SHRA BR BKN007 OVC015 21/21 A2971 RMK SFC VIS 2 SLP049
ROTM 262156Z 00000KT 1200 +SHRA BR BKN006 OVC017 21/21 A2969 RMK SLP042 T2 CANC P0025 T02110211
ROTM 262103Z 32003KT 2 1/2SM -RA FG FEW010 SCT015 OVC025 21/ A2969 RMK AO2 P0001 T0211 $
ROTM 262000Z 36005KT 8000 -SHRA BR BKN006 OVC014 21/21 A2967 RMK CB DSNT SW MOVG NE SLP033 T2
ROTM 261956Z 02004KT 8000 -SHRA BR BKN004 OVC014 21/21 A2967 RMK DZB07E56SHRAB56 CB DSNT SW MOVG NE SLP032 T2 SET P0001 T02110211
ROTM 261907Z 35005KT 9000 -DZ BR BKN003 OVC011 21/21 A2967 RMK DZB07 SLP033
ROTM 261856Z 36004KT 8000 BR BKN005 OVC011 21/21 A2967 RMK SHRAE56 SLP033 P0003 T02110211
ROTM 261808Z 01006KT 8000 -SHRA BR BKN003 BKN09 OVC015 22/22 A2968 RMK SLP035
ROTM 261756Z 35008KT 8000 -SHRA BR BKN005 BKN010 OVC025 22/22 A2968 RMK SLP035 P0006 60031 T02170217 10217 20211 56010
ROTM 261726Z 32007KT 8000 -SHRA BR SCT006 BKN015 OVC025 22/22 A2968 RMK SLP035
ROTM 261656Z 15006KT 8000 -SHRA BR FEW007 BKN020 OVC035 22/22 A2968 RMK SHRAB32 SLP033 P0015 T02170217
ROTM 261556Z 11010KT 9000 DZ BR FEW006 BKN021 OVC033 22/22A 2968 RMK SLP034 P0000 T02170217
ROTM 261456Z 11006KT 9999 -DZ BKN006 OVC023 22/22 A2971 RMK SLP045 P0000 60010 T02170217 402500206 57003
ROTM 261356Z 09007KT 9999 -DZ BKN006 OVC023 21/21 A2971 RMK SHRAE44DZB45 SLP046 P0003 T02110211
ROTM 261303Z 09009KT 10SM RA BR SCT025 BKN070 OVC110 21/21 A2971 RMK AO2 P0000 T02110211 $
ROTM 261156Z 03003KT 8000 SHRA BR BKN023 BKN060 OVC095 21/21 A2971 RMK SLP048 P0008 60156 70184 T02060206 10244 20206 52010
ROTM 261056Z 36010KT 6000 SHRA BR BKN006 OVC016 21/21 A2970 RMK SLP043 P0003 T02060206
ROTM 260956Z 36008KT 6000 SHRA BR BKN005 OVC010 21/21 A2970 RMK SLP042 P0084 T02110211
ROTM 260944Z 01007KT 6000 SHRA BR BKN005 OVC010 21/21 A2969 RMK SLP038
ROTM 260856Z 35011KT 0800 +SHRA FG VV003 23/23 A2969 RMK TWR VIS 3/4 SLP038 P0049 60061 T02280228 57007
ROTM 260835Z 34006KT 1200 +SHRA BR BKN003 BKN009 OVC015 23/23 A2968 RMK TWR VIS 1 1/4 SLP035
ROTM 260812Z COR 33004KT 3200 SHRA BR BKN003 BKN009 OVC015 24/24 A2968 RMK SFC VIS 3 SLP036
ROTM 260800Z 27003KT 6000 -SHRA BR BKN003 BKN009 OVC016 24/24 A2968 RMK SLP037
ROTM 260725Z 23009KT 6000 -SHRA BR BKN009 OVC018 24/24 A2968 RMK SHRAE13DZB13E25SHRAB25 SLP038
ROTM 260713Z 20003KT 8000 -DZ BR BKN007 OVC016 24/24 A2968 RMK SHRAE13DZB13 SLP038
ROTM 260702Z VRB06KT 8000 -SHRA BR BKN007 OVC018 24/24 A2969 RMK SLP040
ROTM 260656Z VRB03KT 4800 -SHRA BR BKN007 OVC015 24/24 A2969 RMK DZE22SHRAB22 SLP040 P0006 T02390239
ROTM 260622Z COR 34003KT 6000 -SHRA BR BKN007 OVC015 24/24 A2970 RMK DZE22SHRAB22 SLP042
ROTM 260603Z 30004KT 8SM -DZ OVC009 24/24 A2970 RMK AO2 CIG 005V014 P0000 T02390239 $
ROTM 260256Z VRB04KT 9999 VCSH SCT007 BKN010 OVC030 25/24 A2975 RMK VIS N 6 SLP058 T02500244 58007
ROTM 260203Z 30006KT 10SM FEW007 BKN013 OVC045 24/24 A2976 RMK AO2 T02440239 $
ROTM 260152Z 30006KT 10SM BKN011 BKN030 OVC050 24/24 A2976 RMK AO2 $
ROTM 252356Z 26006KT 9999 VCSH FEW007 BKN027 OVC075 24/24 A2977 RMK SHRAE10 SLP065 P0002 60028 T02390239 10239 20228 51007
ROTM 252335Z 26006KT 9999 VCSH SCT006 BKN012 OVC030 24/24 A2976 RMK SLP063
ROTM 252310Z 26005KT 9999 VCSH BKN005 BKN015 OVC030 24/24 A2977 RMK SHRAE10 SLP064
ROTM 252256Z 26006KT 3200 SHRA BR BKN007 OVC025 23/23 A2977 RMK SLP065 P0006 T02280228
ROTM 252103Z 24005KT 2 1/2SM -RA BR SCT006 SCT013 OVC037 23/23 A2975 RMK AO2 VIS 1 3/4V3 P0001 T02330233 $
ROTM 251956Z 24005KT 10SM FEW009 SCT022 OVC043 23/23 A2974 RMK AO2 SLP057 T02330233 $
ROTM 251856Z 23005KT 9999 SCT010 BKN025 BKN080 23/23 A2974 RMK SLP057 T02330233
ROTM 251356Z 25005KT 9999 FEW015 BKN070 24/24 A2981 RMK SLP080 T02390239
ROTM 251256Z 26006KT 10SM SCT065 BKN110 24/23 A2981 RMK AO2 SLP081 T02390233 $
ROTM 251156Z 26007KT 9999 FEW015 BKN070 24/23 A2980 RMK SLP078 70034 T02390233 10256 20239 551007
ROTM 251056Z 27005KT 9999 SCT012 BKN030 BKN080 24/23 A2980 RMK SLP076 T02440233
ROTM 250956Z 25008KT 9999 SCT012 BKN030 BKN120 24/24 A2978 RMK SLP071 T02440239
ROTM 250756Z 30007KT 9999 SCT010 BKN050 BKN120 26/24 A2976 RMK SLP060 T02610244
ROTM 250656Z 27010KT 9999 SCT010 BKN050 BKN120 26/24 A2976 RMK SLP063 T02560239
ROTM 250456Z 27010KT 9999 SCT010 BKN060 BKN120 26/24 A2979 RMK SLP073 T02560244
ROTM 250403Z 25009KT 10SM BKN028 BKN033 OVC039 25/24 A2981 RMK AO2 T02500244 $
ROTM 250311Z 24010KT 7SM SCT007 BKN030 OVC080 24/24 A2982 RMK AO2 T02440244 $
ROTM 250256Z 25011KT 9000 DZ BR SCT007 BKN030 BKN080 24/24 A2983 RMK DZB45 SLP085 P0000 60005 T02440244 558003
ROTM 250156Z 25012G20KT 9999 BKN006 OVC015 24/24 A2984 RMK SLP089 P0001 T02440244